Time;durP1;ratioP1;P1;durP2;ratioP2;P2;SDS_P1;SDS_P2;PMS_P1;PMS_P2;Temp;Humidity;BMP_temperature;BMP_pressure;BME280_temperature;BME280_humidity;BME280_pressure;Samples;Min_cycle;Max_cycle;Signal;HPM_P1;HPM_P2
2024/01/21 00:01:53;;;;;;;;;;;;;;;-1.92;100.00;102380.59;4999526;28;19925;-75
2024/01/21 00:04:18;;;;;;;;;;;;;;;-2.03;100.00;102374.50;5002433;28;19921;-76
2024/01/21 00:06:44;;;;;;;;;;;;;;;-1.95;100.00;102375.34;4997554;28;19936;-75
2024/01/21 00:09:09;;;;;;;;;;;;;;;-1.90;100.00;102367.47;5000272;28;20032;-75
2024/01/21 00:11:34;;;;;;;;;;;;;;;-2.11;100.00;102356.94;4992114;28;19936;-75
2024/01/21 00:13:59;;;;;;;;;;;;;;;-2.13;100.00;102348.16;5002594;28;19925;-75
2024/01/21 00:16:25;;;;;;;;;;;;;;;-2.11;100.00;102350.78;5002752;28;19960;-76
2024/01/21 00:18:50;;;;;;;;;;;;;;;-2.18;100.00;102343.78;4992250;28;20279;-76
2024/01/21 00:21:15;;;;;;;;;;;;;;;-2.43;100.00;102314.84;4996657;28;19968;-76
2024/01/21 00:23:40;;;;;;;;;;;;;;;-2.45;100.00;102330.63;4997986;28;19925;-76
2024/01/21 00:26:06;;;;;;;;;;;;;;;-2.42;100.00;102341.16;4997533;28;20252;-75
2024/01/21 00:28:31;;;;;;;;;;;;;;;-2.49;100.00;102333.25;4997724;28;19925;-75
2024/01/21 00:30:56;;;;;;;;;;;;;;;-2.53;100.00;102337.66;4993370;28;19925;-76
2024/01/21 00:33:21;;;;;;;;;;;;;;;-2.55;100.00;102339.41;4979508;28;19957;-75
2024/01/21 00:35:46;;;;;;;;;;;;;;;-2.50;100.00;102331.50;4998923;28;19921;-76
2024/01/21 00:38:12;;;;;;;;;;;;;;;-2.51;100.00;102335.00;4992580;28;19964;-76
2024/01/21 00:40:37;;;;;;;;;;;;;;;-2.49;100.00;102334.13;4998776;28;20049;-76
2024/01/21 00:43:02;;;;;;;;;;;;;;;-2.50;100.00;102326.25;5007809;28;20023;-76
2024/01/21 00:45:28;;;;;;;;;;;;;;;-2.51;100.00;102319.22;4998734;28;19921;-76
2024/01/21 00:47:53;;;;;;;;;;;;;;;-2.58;100.00;102315.72;4994405;28;19979;-75
2024/01/21 00:50:18;;;;;;;;;;;;;;;-2.61;100.00;102321.84;4996786;28;20292;-76
2024/01/21 00:52:43;;;;;;;;;;;;;;;-2.49;100.00;102322.72;5000024;28;19972;-75
2024/01/21 00:55:08;;;;;;;;;;;;;;;-2.61;100.00;102319.22;5002880;28;20269;-75
2024/01/21 00:57:34;;;;;;;;;;;;;;;-2.71;100.00;102313.06;4989536;28;20280;-75
2024/01/21 00:59:59;;;;;;;;;;;;;;;-2.79;100.00;102311.31;4990150;28;20415;-76
2024/01/21 01:02:24;;;;;;;;;;;;;;;-2.73;100.00;102312.19;4994227;28;20451;-76
2024/01/21 01:04:49;;;;;;;;;;;;;;;-2.86;100.00;102305.16;4997045;28;20383;-75
2024/01/21 01:07:14;;;;;;;;;;;;;;;-2.93;100.00;102300.75;4978095;28;22647;-75
2024/01/21 01:09:41;;;;;;;;;;;;;;;-2.91;100.00;102299.88;4998141;28;20328;-75
2024/01/21 01:12:06;;;;;;;;;;;;;;;-2.88;100.00;102302.50;4990225;28;19914;-75
2024/01/21 01:14:31;;;;;;;;;;;;;;;-2.69;100.00;102297.31;4992749;28;19925;-75
2024/01/21 01:16:56;;;;;;;;;;;;;;;-2.84;100.00;102298.16;4995376;28;20558;-76
2024/01/21 01:19:21;;;;;;;;;;;;;;;-2.91;100.00;102291.13;4991595;28;19924;-75
2024/01/21 01:21:47;;;;;;;;;;;;;;;-2.98;100.00;102291.97;4997153;28;19979;-75
2024/01/21 01:24:12;;;;;;;;;;;;;;;-2.82;100.00;102283.28;4996168;28;20004;-75
2024/01/21 01:26:37;;;;;;;;;;;;;;;-2.93;100.00;102277.09;4998269;28;19921;-75
2024/01/21 01:29:02;;;;;;;;;;;;;;;-2.89;100.00;102274.47;4998708;28;20193;-76
2024/01/21 01:31:27;;;;;;;;;;;;;;;-2.82;100.00;102263.97;4999319;28;20012;-75
2024/01/21 01:33:53;;;;;;;;;;;;;;;-2.84;100.00;102261.34;4989524;28;20008;-75
2024/01/21 01:36:18;;;;;;;;;;;;;;;-2.81;100.00;102260.47;4992229;28;19921;-75
2024/01/21 01:38:44;;;;;;;;;;;;;;;-2.79;100.00;102257.00;4998732;28;20360;-76
2024/01/21 01:41:09;;;;;;;;;;;;;;;-2.74;100.00;102241.19;4995402;28;20020;-75
2024/01/21 01:43:34;;;;;;;;;;;;;;;-2.87;100.00;102235.06;4996219;28;19933;-75
2024/01/21 01:46:00;;;;;;;;;;;;;;;-2.86;100.00;102216.66;4995112;28;20007;-75
2024/01/21 01:48:26;;;;;;;;;;;;;;;-2.80;100.00;102210.53;4996270;28;19929;-75
2024/01/21 01:50:51;;;;;;;;;;;;;;;-2.84;100.00;102200.00;4996534;28;19975;-76
2024/01/21 01:53:16;;;;;;;;;;;;;;;-2.83;100.00;102192.13;4997575;28;20375;-75
2024/01/21 01:55:42;;;;;;;;;;;;;;;-2.87;100.00;102183.34;4993225;28;20418;-75
2024/01/21 01:58:07;;;;;;;;;;;;;;;-2.74;100.00;102181.59;4998615;28;19960;-76
2024/01/21 02:00:33;;;;;;;;;;;;;;;-2.71;100.00;102186.84;4995724;28;19964;-75
2024/01/21 02:02:58;;;;;;;;;;;;;;;-2.72;100.00;102178.97;4997983;28;19979;-75
2024/01/21 02:05:24;;;;;;;;;;;;;;;-2.66;100.00;102185.97;4995467;28;19991;-75
2024/01/21 02:07:49;;;;;;;;;;;;;;;-2.60;100.00;102183.34;4999019;28;20343;-76
2024/01/21 02:10:14;;;;;;;;;;;;;;;-2.56;100.00;102190.38;4995140;28;20035;-75
2024/01/21 02:12:43;;;;;;;;;;;;;;;-2.64;100.00;102189.47;4997833;28;19980;-75
2024/01/21 02:15:08;;;;;;;;;;;;;;;-2.63;100.00;102185.97;4993119;28;19953;-75
2024/01/21 02:17:33;;;;;;;;;;;;;;;-2.72;100.00;102181.59;4997515;28;19990;-75
2024/01/21 02:19:59;;;;;;;;;;;;;;;-2.67;100.00;102179.84;4977105;28;20367;-75
2024/01/21 02:22:24;;;;;;;;;;;;;;;-2.77;100.00;102144.78;4978376;28;19925;-75
2024/01/21 02:24:49;;;;;;;;;;;;;;;-2.80;100.00;102167.59;4995553;28;19972;-75
2024/01/21 02:27:14;;;;;;;;;;;;;;;-2.73;100.00;102161.44;4998045;28;20613;-75
2024/01/21 02:29:39;;;;;;;;;;;;;;;-2.72;100.00;102156.19;4996345;28;20037;-76
2024/01/21 02:32:05;;;;;;;;;;;;;;;-2.79;100.00;102148.31;4995949;28;19960;-75
2024/01/21 02:34:31;;;;;;;;;;;;;;;-2.66;100.00;102141.28;4995759;28;20009;-75
2024/01/21 02:36:56;;;;;;;;;;;;;;;-2.60;100.00;102143.91;4997138;28;20021;-75
2024/01/21 02:39:21;;;;;;;;;;;;;;;-2.62;100.00;102128.09;4997804;28;19945;-75
2024/01/21 02:41:46;;;;;;;;;;;;;;;-2.59;100.00;102129.88;4996133;28;20470;-75
2024/01/21 02:44:12;;;;;;;;;;;;;;;-2.69;100.00;102131.66;4994065;28;19943;-75
2024/01/21 02:46:37;;;;;;;;;;;;;;;-2.71;100.00;102125.53;4995248;28;19948;-76
2024/01/21 02:49:02;;;;;;;;;;;;;;;-2.62;100.00;102117.59;4995205;28;20371;-75
2024/01/21 02:51:27;;;;;;;;;;;;;;;-2.61;100.00;102121.13;4980009;28;19921;-75
2024/01/21 02:53:53;;;;;;;;;;;;;;;-2.55;100.00;102105.31;4997277;28;19932;-75
2024/01/21 02:56:21;;;;;;;;;;;;;;;-2.48;100.00;102106.19;4996114;28;20019;-75
2024/01/21 02:58:47;;;;;;;;;;;;;;;-2.43;100.00;102100.00;4994926;28;19956;-75
2024/01/21 03:01:13;;;;;;;;;;;;;;;-2.46;100.00;102107.91;4996232;28;19921;-75
2024/01/21 03:03:38;;;;;;;;;;;;;;;-2.25;100.00;102092.91;4998875;28;19925;-75
2024/01/21 03:06:03;;;;;;;;;;;;;;;-2.21;100.00;102088.53;4977972;28;19980;-75
2024/01/21 03:08:28;;;;;;;;;;;;;;;-2.30;100.00;102087.69;4999258;28;20012;-76
2024/01/21 03:10:54;;;;;;;;;;;;;;;-2.29;100.00;102085.94;4999793;28;20392;-75
2024/01/21 03:13:19;;;;;;;;;;;;;;;-2.22;100.00;102084.16;5002196;28;19931;-75
2024/01/21 03:15:44;;;;;;;;;;;;;;;-2.17;100.00;102075.34;4995976;28;19920;-75
2024/01/21 03:18:09;;;;;;;;;;;;;;;-2.11;100.00;102063.91;5003719;28;19921;-76
2024/01/21 03:20:35;;;;;;;;;;;;;;;-2.00;100.00;102050.72;5000011;28;19925;-74
2024/01/21 03:23:00;;;;;;;;;;;;;;;-1.96;100.00;102036.63;4999389;28;20370;-75
2024/01/21 03:25:25;;;;;;;;;;;;;;;-1.78;100.00;102037.41;5001262;28;20513;-75
2024/01/21 03:27:50;;;;;;;;;;;;;;;-1.73;100.00;102031.22;5003714;28;20376;-75
2024/01/21 03:30:15;;;;;;;;;;;;;;;-1.74;100.00;102025.97;4998326;28;20485;-75
2024/01/21 03:32:41;;;;;;;;;;;;;;;-1.88;100.00;102024.31;4999199;28;20276;-75
2024/01/21 03:35:06;;;;;;;;;;;;;;;-1.91;100.00;102020.81;4982466;28;20302;-75
2024/01/21 03:37:31;;;;;;;;;;;;;;;-1.94;100.00;102020.84;5000043;28;20335;-75
2024/01/21 03:39:56;;;;;;;;;;;;;;;-2.02;100.00;102027.03;4997264;28;20368;-76
2024/01/21 03:42:22;;;;;;;;;;;;;;;-1.94;100.00;102034.88;4998026;28;19921;-76
2024/01/21 03:44:49;;;;;;;;;;;;;;;-1.81;100.00;102041.81;4980658;28;19933;-76
2024/01/21 03:47:14;;;;;;;;;;;;;;;-1.92;100.00;102042.78;4999950;28;20196;-76
2024/01/21 03:49:39;;;;;;;;;;;;;;;-1.94;100.00;102034.88;4999159;28;20176;-76
2024/01/21 03:52:05;;;;;;;;;;;;;;;-1.93;100.00;102026.09;4998599;28;19922;-75
2024/01/21 03:54:30;;;;;;;;;;;;;;;-2.06;100.00;102024.44;4997875;28;19937;-76
2024/01/21 03:56:55;;;;;;;;;;;;;;;-1.93;100.00;102023.44;4998861;28;19917;-76
2024/01/21 03:59:20;;;;;;;;;;;;;;;-2.04;100.00;102027.94;4998590;28;19927;-75
2024/01/21 04:01:45;;;;;;;;;;;;;;;-1.84;100.00;102018.13;4997066;28;19917;-76
2024/01/21 04:04:11;;;;;;;;;;;;;;;-1.73;100.00;102025.09;4996798;28;19932;-76
2024/01/21 04:06:40;;;;;;;;;;;;;;;-1.59;100.00;102019.72;4986132;28;20493;-75
2024/01/21 04:09:05;;;;;;;;;;;;;;;-1.36;100.00;102008.97;4995771;28;20067;-76
2024/01/21 04:11:31;;;;;;;;;;;;;;;-1.44;100.00;102002.88;5004246;28;20346;-73
2024/01/21 04:13:56;;;;;;;;;;;;;;;-1.29;100.00;101988.69;5001038;28;20491;-73
2024/01/21 04:16:21;;;;;;;;;;;;;;;-1.25;100.00;101987.78;5001596;28;20291;-75
2024/01/21 04:18:47;;;;;;;;;;;;;;;-1.24;100.00;101973.72;5004477;28;20407;-75
2024/01/21 04:21:12;;;;;;;;;;;;;;;-1.27;100.00;101976.38;5003317;28;19921;-75
2024/01/21 04:23:38;;;;;;;;;;;;;;;-1.00;100.00;101983.13;5001813;28;19940;-75
2024/01/21 04:26:03;;;;;;;;;;;;;;;-1.24;100.00;101973.72;4999808;28;19922;-76
2024/01/21 04:28:28;;;;;;;;;;;;;;;-1.13;100.00;101969.22;5002015;28;19925;-75
2024/01/21 04:30:53;;;;;;;;;;;;;;;-1.14;100.00;101974.50;5002912;28;19924;-75
2024/01/21 04:33:18;;;;;;;;;;;;;;;-1.11;100.00;101963.91;5007073;28;19924;-74
2024/01/21 04:35:44;;;;;;;;;;;;;;;-1.06;100.00;101962.97;5006192;28;19917;-75
2024/01/21 04:38:09;;;;;;;;;;;;;;;-0.98;100.00;101962.91;4999489;28;19918;-75
2024/01/21 04:40:34;;;;;;;;;;;;;;;-1.03;100.00;101943.63;4997974;28;20336;-75
2024/01/21 04:42:59;;;;;;;;;;;;;;;-1.06;100.00;101951.56;4992804;28;19925;-76
2024/01/21 04:45:25;;;;;;;;;;;;;;;-0.93;100.00;101952.28;5001826;28;19922;-75
2024/01/21 04:47:50;;;;;;;;;;;;;;;-0.81;100.00;101941.63;5000665;28;19928;-74
2024/01/21 04:50:15;;;;;;;;;;;;;;;-0.91;100.00;101926.78;4995981;28;19945;-75
2024/01/21 04:52:40;;;;;;;;;;;;;;;-0.95;100.00;101914.53;5001487;28;20020;-76
2024/01/21 04:55:06;;;;;;;;;;;;;;;-1.02;100.00;101919.00;4999881;28;19927;-76
2024/01/21 04:57:31;;;;;;;;;;;;;;;-0.99;100.00;101895.25;5004706;28;19935;-75
2024/01/21 04:59:56;;;;;;;;;;;;;;;-0.85;100.00;101895.06;4999747;28;19918;-75
2024/01/21 05:02:21;;;;;;;;;;;;;;;-0.88;100.00;101897.75;5005139;28;19926;-75
2024/01/21 05:04:47;;;;;;;;;;;;;;;-0.95;100.00;101883.78;5005201;28;19925;-75
2024/01/21 05:07:12;;;;;;;;;;;;;;;-0.85;100.00;101896.81;5001381;28;19925;-75
2024/01/21 05:09:37;;;;;;;;;;;;;;;-0.82;100.00;101887.13;4999826;28;19929;-75
2024/01/21 05:12:02;;;;;;;;;;;;;;;-0.71;100.00;101889.63;5002056;28;19922;-76
2024/01/21 05:14:27;;;;;;;;;;;;;;;-0.72;100.00;101898.41;4998660;28;20223;-75
2024/01/21 05:16:53;;;;;;;;;;;;;;;-0.72;100.00;101869.41;4986943;28;19921;-76
2024/01/21 05:19:18;;;;;;;;;;;;;;;-0.49;100.00;101894.56;5002956;28;19922;-73
2024/01/21 05:21:43;;;;;;;;;;;;;;;-0.45;100.00;101880.44;5001903;28;19932;-76
2024/01/21 05:24:08;;;;;;;;;;;;;;;-0.46;100.00;101890.13;5001270;28;19969;-75
2024/01/21 05:26:41;;;;;;;;;;;;;;;-0.52;100.00;101884.06;4982616;28;20020;-75
2024/01/21 05:29:06;;;;;;;;;;;;;;;-0.51;100.00;101891.94;4999068;28;19928;-76
2024/01/21 05:31:33;;;;;;;;;;;;;;;-0.25;100.00;101909.16;4998897;28;20006;-73
2024/01/21 05:33:58;;;;;;;;;;;;;;;-0.44;100.00;101894.50;4998572;28;19918;-75
2024/01/21 05:36:23;;;;;;;;;;;;;;;-0.38;100.00;101892.63;5001767;28;19928;-73
2024/01/21 05:38:48;;;;;;;;;;;;;;;-0.29;100.00;101885.47;5001816;28;19963;-75
2024/01/21 05:41:17;;;;;;;;;;;;;;;-0.40;100.00;101861.91;5001396;28;20106;-73
2024/01/21 05:43:42;;;;;;;;;;;;;;;-0.20;100.00;101856.31;4998767;28;20167;-75
2024/01/21 05:46:07;;;;;;;;;;;;;;;-0.22;100.00;101858.97;5000661;28;20191;-73
2024/01/21 05:48:32;;;;;;;;;;;;;;;-0.15;100.00;101859.75;4998993;28;20032;-73
2024/01/21 05:50:58;;;;;;;;;;;;;;;0.17;100.00;101844.25;5000120;28;20039;-74
2024/01/21 05:53:23;;;;;;;;;;;;;;;-0.10;100.00;101857.88;5001119;28;19921;-75
2024/01/21 05:55:48;;;;;;;;;;;;;;;-0.21;100.00;101865.13;5002945;28;19917;-73
2024/01/21 05:58:15;;;;;;;;;;;;;;;-0.24;100.00;101870.44;5002481;28;19983;-76
2024/01/21 06:00:40;;;;;;;;;;;;;;;-0.09;100.00;101854.34;4999351;28;19964;-75
2024/01/21 06:03:05;;;;;;;;;;;;;;;-0.12;100.00;101864.09;4997508;28;19926;-76
2024/01/21 06:05:30;;;;;;;;;;;;;;;-0.25;100.00;101871.34;5002376;28;19921;-77
2024/01/21 06:07:55;;;;;;;;;;;;;;;-0.10;100.00;101857.88;4999999;28;19925;-76
2024/01/21 06:10:21;;;;;;;;;;;;;;;-0.04;100.00;101860.44;4982223;28;19933;-74
2024/01/21 06:12:46;;;;;;;;;;;;;;;0.07;100.00;101859.38;4999650;28;19961;-74
2024/01/21 06:15:12;;;;;;;;;;;;;;;0.05;100.00;101855.91;4999999;28;20004;-75
2024/01/21 06:17:37;;;;;;;;;;;;;;;0.00;100.00;101853.34;5002240;28;19922;-73
2024/01/21 06:20:02;;;;;;;;;;;;;;;0.12;100.00;101849.63;5002966;28;19921;-75
2024/01/21 06:22:28;;;;;;;;;;;;;;;0.23;100.00;101838.84;5001824;28;19925;-76
2024/01/21 06:24:54;;;;;;;;;;;;;;;0.06;100.00;101847.94;4999528;28;19979;-75
2024/01/21 06:27:19;;;;;;;;;;;;;;;0.16;100.00;101872.41;4982513;28;19922;-75
2024/01/21 06:29:45;;;;;;;;;;;;;;;0.28;100.00;101860.75;4999082;28;20371;-75
2024/01/21 06:32:10;;;;;;;;;;;;;;;0.47;100.00;101869.19;5003255;28;20003;-73
2024/01/21 06:34:35;;;;;;;;;;;;;;;0.55;100.00;101867.28;5001089;28;19928;-74
2024/01/21 06:37:00;;;;;;;;;;;;;;;0.41;100.00;101866.66;4997911;28;20279;-75
2024/01/21 06:39:25;;;;;;;;;;;;;;;0.41;100.00;101877.25;5000333;28;20372;-75
2024/01/21 06:41:51;;;;;;;;;;;;;;;0.44;100.00;101859.56;5001197;28;20372;-76
2024/01/21 06:44:16;;;;;;;;;;;;;;;0.60;100.00;101856.63;5001388;28;20016;-73
2024/01/21 06:46:42;;;;;;;;;;;;;;;0.66;100.00;101859.16;5002280;28;19924;-75
2024/01/21 06:49:07;;;;;;;;;;;;;;;0.43;100.00;101846.38;5008679;28;19972;-75
2024/01/21 06:51:42;;;;;;;;;;;;;;;0.58;100.00;101883.09;5004376;28;19949;-75
2024/01/21 06:54:07;;;;;;;;;;;;;;;0.48;100.00;101892.09;5008009;28;19922;-74
2024/01/21 06:56:33;;;;;;;;;;;;;;;0.55;100.00;101901.66;5012248;28;20315;-74
2024/01/21 06:58:58;;;;;;;;;;;;;;;0.66;100.00;101893.50;5006838;28;20368;-74
2024/01/21 07:01:23;;;;;;;;;;;;;;;0.83;99.95;101879.09;5003035;28;19936;-75
2024/01/21 07:03:49;;;;;;;;;;;;;;;0.67;100.00;101887.31;5019994;28;19956;-75
2024/01/21 07:06:14;;;;;;;;;;;;;;;0.82;99.06;101869.41;5004285;28;20012;-74
2024/01/21 07:08:40;;;;;;;;;;;;;;;0.92;100.00;101883.34;4985889;28;20006;-74
2024/01/21 07:11:08;;;;;;;;;;;;;;;0.99;98.28;101853.19;4984720;28;20387;-74
2024/01/21 07:13:34;;;;;;;;;;;;;;;1.00;98.43;101836.41;5003596;28;19909;-77
2024/01/21 07:15:59;;;;;;;;;;;;;;;0.92;98.81;101835.75;5002875;28;20422;-72
2024/01/21 07:18:25;;;;;;;;;;;;;;;0.92;98.73;101815.44;4999174;28;19937;-76
2024/01/21 07:20:50;;;;;;;;;;;;;;;0.91;98.80;101824.28;4999834;28;19921;-73
2024/01/21 07:23:15;;;;;;;;;;;;;;;1.21;97.44;101816.56;5001015;28;20452;-76
2024/01/21 07:25:40;;;;;;;;;;;;;;;0.93;98.05;101835.69;5000288;28;20421;-74
2024/01/21 07:28:06;;;;;;;;;;;;;;;0.90;98.27;101833.09;5000257;28;20533;-73
2024/01/21 07:30:31;;;;;;;;;;;;;;;0.97;97.17;101823.25;5004487;28;19926;-74
2024/01/21 07:32:57;;;;;;;;;;;;;;;1.03;97.89;101818.72;5000374;28;19921;-74
2024/01/21 07:35:22;;;;;;;;;;;;;;;1.01;97.74;101801.13;4999741;28;20392;-73
2024/01/21 07:37:47;;;;;;;;;;;;;;;1.07;97.06;101813.34;5002796;28;20008;-76
2024/01/21 07:40:13;;;;;;;;;;;;;;;0.85;98.78;101837.63;5003578;28;19921;-74
2024/01/21 07:42:38;;;;;;;;;;;;;;;1.00;96.37;101823.19;5001322;28;19926;-75
2024/01/21 07:45:04;;;;;;;;;;;;;;;0.83;97.68;101852.63;5001320;28;20020;-75
2024/01/21 07:47:29;;;;;;;;;;;;;;;0.85;98.37;101840.25;5004523;28;20470;-74
2024/01/21 07:49:55;;;;;;;;;;;;;;;0.95;96.08;101839.16;5000040;28;19921;-75
2024/01/21 07:52:20;;;;;;;;;;;;;;;0.96;97.06;101846.22;5002792;28;19924;-75
2024/01/21 07:54:45;;;;;;;;;;;;;;;0.94;97.57;101850.66;5000970;28;20347;-76
2024/01/21 07:57:11;;;;;;;;;;;;;;;0.95;97.32;101849.75;4999896;28;20581;-74
2024/01/21 07:59:36;;;;;;;;;;;;;;;1.07;96.88;101866.25;5004095;28;20395;-74
2024/01/21 08:02:01;;;;;;;;;;;;;;;0.92;98.12;101878.03;4999817;28;19994;-74
2024/01/21 08:04:26;;;;;;;;;;;;;;;1.04;97.67;101888.34;5006354;28;20422;-75
2024/01/21 08:06:52;;;;;;;;;;;;;;;1.20;96.54;101889.75;4999427;28;20504;-74
2024/01/21 08:09:18;;;;;;;;;;;;;;;1.15;95.96;101888.13;5002987;28;19922;-74
2024/01/21 08:11:43;;;;;;;;;;;;;;;1.09;97.38;101893.53;5003502;28;19921;-73
2024/01/21 08:14:08;;;;;;;;;;;;;;;1.01;97.03;101899.00;5000483;28;20185;-74
2024/01/21 08:16:33;;;;;;;;;;;;;;;1.16;96.77;101918.97;4985197;28;20288;-76
2024/01/21 08:18:58;;;;;;;;;;;;;;;0.99;97.07;101920.19;5009161;28;20469;-74
2024/01/21 08:21:24;;;;;;;;;;;;;;;0.99;97.79;101930.78;5008461;28;19922;-73
2024/01/21 08:23:49;;;;;;;;;;;;;;;1.18;96.83;101923.34;5009020;28;19921;-74
2024/01/21 08:26:15;;;;;;;;;;;;;;;1.08;97.52;101907.66;5002799;28;19921;-74
2024/01/21 08:28:40;;;;;;;;;;;;;;;1.27;97.41;101914.31;5003036;28;20352;-74
2024/01/21 08:31:06;;;;;;;;;;;;;;;1.26;97.95;101903.75;5006892;28;19928;-75
2024/01/21 08:33:33;;;;;;;;;;;;;;;1.36;97.33;101905.31;4998994;28;20403;-75
2024/01/21 08:35:58;;;;;;;;;;;;;;;1.48;98.02;101909.47;4984535;28;19929;-77
2024/01/21 08:38:24;;;;;;;;;;;;;;;1.46;98.32;101898.88;4986593;28;19926;-75
2024/01/21 08:40:49;;;;;;;;;;;;;;;1.52;97.34;101897.91;4999698;28;19917;-74
2024/01/21 08:43:14;;;;;;;;;;;;;;;1.49;97.11;101896.19;4999409;28;19975;-74
2024/01/21 08:45:39;;;;;;;;;;;;;;;1.51;97.92;101898.81;5000141;28;19933;-75
2024/01/21 08:48:05;;;;;;;;;;;;;;;1.42;97.80;101917.53;4999723;28;19922;-73
2024/01/21 08:50:30;;;;;;;;;;;;;;;1.47;97.82;101903.28;4996619;28;19921;-74
2024/01/21 08:52:55;;;;;;;;;;;;;;;1.54;97.70;101901.38;4999776;28;19996;-72
2024/01/21 08:55:20;;;;;;;;;;;;;;;1.48;98.60;101918.25;4978895;28;19925;-73
2024/01/21 08:57:46;;;;;;;;;;;;;;;1.52;100.00;101915.53;4999434;28;19929;-73
2024/01/21 09:00:12;;;;;;;;;;;;;;;1.58;99.35;101903.06;4997277;28;20134;-72
2024/01/21 09:02:38;;;;;;;;;;;;;;;1.71;99.07;101911.59;4998011;28;19964;-75
2024/01/21 09:05:03;;;;;;;;;;;;;;;1.53;100.00;101912.00;4997642;28;19988;-73
2024/01/21 09:07:29;;;;;;;;;;;;;;;1.72;99.44;101888.63;4993848;28;20331;-74
2024/01/21 09:09:54;;;;;;;;;;;;;;;1.59;100.00;101911.84;4994271;28;20531;-73
2024/01/21 09:12:19;;;;;;;;;;;;;;;1.80;100.00;101915.78;4995047;28;19956;-76
2024/01/21 09:14:44;;;;;;;;;;;;;;;1.91;100.00;101931.44;4996545;28;20020;-75
2024/01/21 09:17:09;;;;;;;;;;;;;;;1.83;100.00;101936.03;4997824;28;19925;-75
2024/01/21 09:19:35;;;;;;;;;;;;;;;1.83;100.00;101923.66;4998682;28;20422;-75
2024/01/21 09:22:01;;;;;;;;;;;;;;;1.68;100.00;101942.53;4995789;28;19921;-74
2024/01/21 09:24:26;;;;;;;;;;;;;;;1.72;100.00;101957.47;4997838;28;20033;-74
2024/01/21 09:26:51;;;;;;;;;;;;;;;1.63;100.00;101961.19;4997308;28;19917;-76
2024/01/21 09:29:16;;;;;;;;;;;;;;;1.58;100.00;101961.31;4998156;28;19928;-75
2024/01/21 09:31:42;;;;;;;;;;;;;;;1.67;100.00;101961.97;4997413;28;19944;-77
2024/01/21 09:34:07;;;;;;;;;;;;;;;1.60;100.00;101954.16;4998036;28;19921;-75
2024/01/21 09:36:34;;;;;;;;;;;;;;;1.67;100.00;101957.56;4977117;28;20007;-76
2024/01/21 09:39:00;;;;;;;;;;;;;;;1.68;100.00;101940.78;4994034;28;19932;-75
2024/01/21 09:41:32;;;;;;;;;;;;;;;1.80;100.00;101945.78;4994902;28;21112;-75
2024/01/21 09:43:58;;;;;;;;;;;;;;;1.83;100.00;101957.22;4995144;28;20012;-77
2024/01/21 09:46:23;;;;;;;;;;;;;;;1.68;100.00;101961.97;4995945;28;19945;-74
2024/01/21 09:48:48;;;;;;;;;;;;;;;1.84;100.00;101964.25;4994358;28;19967;-75
2024/01/21 09:51:13;;;;;;;;;;;;;;;1.72;100.00;101960.97;4977251;28;20481;-77
2024/01/21 09:53:39;;;;;;;;;;;;;;;1.87;100.00;101957.09;4992824;28;20371;-76
2024/01/21 09:56:07;;;;;;;;;;;;;;;1.92;100.00;101962.31;4994422;28;20237;-76
2024/01/21 09:58:34;;;;;;;;;;;;;;;1.85;100.00;101966.88;4996514;28;20470;-76
2024/01/21 10:00:59;;;;;;;;;;;;;;;1.74;100.00;101964.44;4993429;28;19922;-76
2024/01/21 10:03:24;;;;;;;;;;;;;;;1.77;100.00;101953.78;4994104;28;20351;-75
2024/01/21 10:05:49;;;;;;;;;;;;;;;2.03;100.00;101960.25;4987881;28;19922;-76
2024/01/21 10:08:15;;;;;;;;;;;;;;;1.83;100.00;101966.03;4991662;28;19921;-76
2024/01/21 10:10:42;;;;;;;;;;;;;;;1.76;100.00;101938.81;4992955;28;19928;-76
2024/01/21 10:13:07;;;;;;;;;;;;;;;1.91;100.00;101964.06;4993833;28;20059;-76
2024/01/21 10:15:33;;;;;;;;;;;;;;;1.99;100.00;101974.47;4992929;28;20219;-75
2024/01/21 10:17:58;;;;;;;;;;;;;;;2.08;100.00;101954.88;4997528;28;20355;-75
2024/01/21 10:20:23;;;;;;;;;;;;;;;1.99;100.00;101952.44;5000001;28;19913;-76
2024/01/21 10:22:48;;;;;;;;;;;;;;;2.02;100.00;101939.09;4998643;28;19929;-76
2024/01/21 10:25:14;;;;;;;;;;;;;;;2.05;100.00;101942.53;4999929;28;20432;-75
2024/01/21 10:27:40;;;;;;;;;;;;;;;2.29;100.00;101958.75;4997591;28;20368;-73
2024/01/21 10:30:06;;;;;;;;;;;;;;;2.51;100.00;101944.97;4998018;28;20318;-75
2024/01/21 10:32:31;;;;;;;;;;;;;;;2.53;100.00;101940.47;5000099;28;19918;-76
2024/01/21 10:34:56;;;;;;;;;;;;;;;2.51;100.00;101924.59;4999026;28;19917;-74
2024/01/21 10:37:22;;;;;;;;;;;;;;;2.44;100.00;101944.22;4996836;28;19928;-74
2024/01/21 10:39:47;;;;;;;;;;;;;;;2.49;100.00;101925.56;4998254;28;19925;-75
2024/01/21 10:42:14;;;;;;;;;;;;;;;2.42;100.00;101923.97;4998575;28;19925;-74
2024/01/21 10:44:39;;;;;;;;;;;;;;;2.45;100.00;101930.06;4997102;28;20387;-75
2024/01/21 10:47:04;;;;;;;;;;;;;;;2.17;100.00;101900.78;4995333;28;19968;-74
2024/01/21 10:49:31;;;;;;;;;;;;;;;2.20;100.00;101921.88;4997944;28;19925;-75
2024/01/21 10:51:56;;;;;;;;;;;;;;;2.36;100.00;101925.88;5001353;28;19932;-74
2024/01/21 10:54:22;;;;;;;;;;;;;;;2.25;100.00;101912.06;5003645;28;19921;-75
2024/01/21 10:56:48;;;;;;;;;;;;;;;2.22;100.00;101920.94;4997987;28;19922;-75
2024/01/21 10:59:13;;;;;;;;;;;;;;;2.37;100.00;101909.06;4998992;28;19917;-75
2024/01/21 11:01:42;;;;;;;;;;;;;;;2.29;100.00;101891.63;4998213;28;19933;-74
2024/01/21 11:04:08;;;;;;;;;;;;;;;2.15;100.00;101879.59;4999483;28;19926;-75
2024/01/21 11:06:34;;;;;;;;;;;;;;;2.18;100.00;101892.75;5005881;28;19941;-75
2024/01/21 11:09:00;;;;;;;;;;;;;;;2.39;100.00;101894.00;4992270;28;19921;-75
2024/01/21 11:11:25;;;;;;;;;;;;;;;2.38;100.00;101909.94;4999933;28;19925;-75
2024/01/21 11:13:51;;;;;;;;;;;;;;;2.33;100.00;101909.19;4983526;28;20343;-75
2024/01/21 11:16:25;;;;;;;;;;;;;;;2.40;100.00;101903.69;5000253;28;20395;-74
2024/01/21 11:18:50;;;;;;;;;;;;;;;2.46;100.00;101897.34;4998849;28;20489;-75
2024/01/21 11:21:19;;;;;;;;;;;;;;;2.34;100.00;101913.59;5003629;28;19917;-76
2024/01/21 11:23:44;;;;;;;;;;;;;;;2.34;100.00;101911.78;5000185;28;20295;-75
2024/01/21 11:26:18;;;;;;;;;;;;;;;2.42;100.00;101905.44;5000584;28;19926;-74
2024/01/21 11:28:43;;;;;;;;;;;;;;;2.55;100.00;101913.00;5000643;28;19922;-75
2024/01/21 11:31:10;;;;;;;;;;;;;;;2.74;100.00;101907.19;4984712;28;20443;-75
2024/01/21 11:33:36;;;;;;;;;;;;;;;2.62;100.00;101905.75;4986209;28;19928;-74
2024/01/21 11:36:01;;;;;;;;;;;;;;;2.74;100.00;101901.03;4997644;28;19922;-76
2024/01/21 11:38:27;;;;;;;;;;;;;;;2.66;100.00;101902.13;5002383;28;20376;-75
2024/01/21 11:41:00;;;;;;;;;;;;;;;2.68;100.00;101894.97;4993597;28;19932;-73
2024/01/21 11:43:25;;;;;;;;;;;;;;;2.80;100.00;101914.09;5004243;28;19928;-74
2024/01/21 11:45:50;;;;;;;;;;;;;;;3.00;100.00;101914.44;5001793;28;20284;-75
2024/01/21 11:48:16;;;;;;;;;;;;;;;2.91;100.00;101898.75;5002943;28;20451;-74
2024/01/21 11:50:41;;;;;;;;;;;;;;;2.98;100.00;101908.28;5002897;28;20614;-75
2024/01/21 11:53:06;;;;;;;;;;;;;;;2.96;100.00;101915.44;5003971;28;19921;-74
2024/01/21 11:55:32;;;;;;;;;;;;;;;3.02;100.00;101919.69;5004029;28;19921;-74
2024/01/21 11:57:57;;;;;;;;;;;;;;;2.98;100.00;101924.22;5002929;28;19960;-75
2024/01/21 12:00:22;;;;;;;;;;;;;;;3.10;100.00;101917.69;5003523;28;19929;-75
2024/01/21 12:02:48;;;;;;;;;;;;;;;3.23;100.00;101928.81;5003650;28;19937;-75
2024/01/21 12:05:16;;;;;;;;;;;;;;;3.18;100.00;101908.63;4985285;28;19961;-74
2024/01/21 12:07:41;;;;;;;;;;;;;;;3.27;100.00;101918.97;5000654;28;19930;-75
2024/01/21 12:10:07;;;;;;;;;;;;;;;3.03;100.00;101904.66;4998753;28;19945;-73
2024/01/21 12:12:32;;;;;;;;;;;;;;;3.23;100.00;101926.16;5001675;28;20009;-74
2024/01/21 12:14:58;;;;;;;;;;;;;;;3.15;100.00;101917.53;5001311;28;20003;-74
2024/01/21 12:17:23;;;;;;;;;;;;;;;3.12;100.00;101923.81;5005030;28;20088;-74
2024/01/21 12:19:49;;;;;;;;;;;;;;;3.30;100.00;101911.78;5001124;28;20300;-74
2024/01/21 12:22:14;;;;;;;;;;;;;;;3.17;100.00;101923.69;4995058;28;19968;-74
2024/01/21 12:24:40;;;;;;;;;;;;;;;3.25;100.00;101912.81;5002431;28;19925;-72